Flight Track Log - Related Links

Times and Time Zones

All times are in EDT time to prevent confusion due to time zone crossing. See the SWA440 flight status page for this flight to view local times or setup timezone preferences in your user account.

Time Position Orientation Groundspeed Altitude Reporting Facility
EDT Latitude Longitude Course Direction KTS MPH feet Rate Location/Type
Tue 09:16:07 AM 41.8167 -87.6667 90° East 255 293 4,700  Level Chicago TRACON
Tue 09:16:42 AM 41.8092 -87.6147 101° East 250 288 5,000 188 Climbing Chicago Center
Tue 09:17:43 AM 41.8003 -87.5075 96° East 269 310 5,000 390 Level Chicago Center
Tue 09:18:45 AM 41.7917 -87.4028 96° East 279 321 5,800 2,710 Climbing Chicago Center
Tue 09:19:47 AM 41.7817 -87.2936 97° East 289 333 10,600 4,355 Climbing Chicago Center
Tue 09:20:00 AM 41.7572 -87.1149 98° East  Level FlightAware Approximate
Tue 09:20:49 AM 41.7694 -87.1500 96° East 316 364 14,800  Level Chicago Center
Tue 09:21:51 AM 41.7600 -87.0211 96° East 339 390 18,800 3,581 Climbing Chicago Center
Tue 09:22:53 AM 41.7633 -86.8900 88° East 350 403 22,200 2,195 Climbing Chicago Center
Tue 09:23:54 AM 41.7656 -86.7417 89° East 390 449 23,300 1,659 Climbing Chicago Center
Tue 09:24:56 AM 41.7650 -86.5758 90° East 426 490 25,600 2,129 Climbing Chicago Center
Tue 09:25:58 AM 41.7664 -86.4011 89° East 462 532 27,700 1,645 Climbing Chicago Center
Tue 09:27:00 AM 41.7769 -86.2211 85° East 481 554 29,000 629 Climbing Chicago Center
Tue 09:28:02 AM 41.7975 -86.0453 81° East 477 549 29,000  Level Chicago Center
Tue 09:29:04 AM 41.8208 -85.8292 82° East 485 558 29,000  Level Chicago Center
Tue 09:30:06 AM 41.8406 -85.6439 82° East 496 571 29,000  Level Chicago Center
Tue 09:31:08 AM 41.8606 -85.4594 82° East 493 567 29,000  Level Chicago Center
Tue 09:32:10 AM 41.8797 -85.2747 82° East 492 566 29,000  Level Chicago Center
Tue 09:32:38 AM 41.8900 -85.1975 80° East 482 555 29,000  Level Cleveland Center
Tue 09:33:38 AM 41.9078 -85.0117 83° East 487 560 29,000  Level Cleveland Center
Tue 09:34:38 AM 41.9250 -84.8314 83° East 487 560 29,000  Level Cleveland Center
Tue 09:35:38 AM 41.9400 -84.6481 84° East 487 560 29,000  Level Cleveland Center
Tue 09:36:38 AM 41.9608 -84.4678 81° East 487 560 29,000  Level Cleveland Center
Tue 09:37:38 AM 41.9736 -84.2675 85° East 492 566 29,000  Level Cleveland Center
Tue 09:38:38 AM 41.9919 -84.0867 82° East 492 566 29,000 -200 Level Cleveland Center
Tue 09:39:38 AM 42.0056 -83.9058 84° East 487 560 28,600 -850 Descending Cleveland Center
Tue 09:40:38 AM 42.0208 -83.7389 83° East 475 547 27,300 -1,550 Descending Cleveland Center
Tue 09:41:38 AM 42.0356 -83.5803 83° East 452 520 25,500 -2,300 Descending Cleveland Center
Tue 09:42:38 AM 42.0436 -83.4267 86° East 418 481 22,700 -2,650 Descending Cleveland Center
Tue 09:43:38 AM 42.0264 -83.2722 98° East 413 475 20,200 -2,300 Descending Cleveland Center
Tue 09:44:38 AM 42.0153 -83.1236 96° East 407 468 18,100 -1,100 Descending Cleveland Center
Tue 09:45:38 AM 41.9994 -82.9861 99° East 392 451 18,000 -50 Descending Cleveland Center
Tue 09:46:38 AM 41.9878 -82.8461 96° East 378 435 18,000 -100 Level Cleveland Center
Tue 09:47:38 AM 41.9733 -82.7225 99° East 378 435 17,800 -568 Descending Cleveland Center
Tue 09:48:13 AM 41.9644 -82.6411 98° East 353 406 17,100 -1,500 Descending Cleveland Center
Tue 09:48:38 AM 41.9611 -82.5936 95° East 361 415 16,300 -2,000 Descending Cleveland Center
Tue 09:49:25 AM 41.9378 -82.4925 107° East 327 376 14,700 -1,944 Descending Cleveland Center
Tue 09:50:26 AM 41.9000 -82.3797 114° Southeast 320 368 12,800 -1,828 Descending Cleveland Center
Tue 09:51:33 AM 41.8664 -82.2644 111° Southeast 311 358 10,800 -1,388 Descending Cleveland Center
Tue 09:52:27 AM 41.8322 -82.1689 116° Southeast 301 346 10,000 -470 Descending Cleveland Center
Tue 09:53:28 AM 41.7686 -82.1061 144° Southeast 294 338 9,900 -962 Descending Cleveland Center
Tue 09:54:38 AM 41.7031 -82.0156 134° Southeast 289 333 7,900 -1,884 Descending Cleveland Center
Tue 09:55:29 AM 41.6578 -81.9589 137° Southeast 274 315 6,100 -1,650 Descending Cleveland Center
Tue 09:56:38 AM 41.5961 -81.8742 134° Southeast 276 318 4,600 -992 Descending Cleveland Center
Tue 09:57:30 AM 41.5550 -81.8236 137° Southeast 222 255 4,100 -743 Descending Cleveland Center
Tue 09:58:31 AM 41.5161 -81.7728 136° Southeast 195 224 3,200 -703 Descending Cleveland Center
Tue 09:59:38 AM 41.4744 -81.7525 160° South 139 160 2,600 -574 Descending Cleveland Center
Tue 10:00:26 AM 41.4575 -81.7856 236° Southwest 128 147 2,100 -678 Descending Cleveland Center
Tue 10:01:33 AM 41.4300 -81.8239 226° Southwest 121 139 1,300 -716 Descending Cleveland Center
Tue 10:03:00 AM 41.4000 -81.8500 153° Southeast  Level FlightAware Approximate

Login

Don't have an account? Register now (free) for customized features, flight alerts, and more!